Aérodrome :
LOGIN :

S'inscrire | Disclaimer

   EN    FR    IT 

 










Légende :    VFR   VFR Marginal   IFR   IFR Intensif   IFR Très Intensif
Visi : 
Plafond : 
>= 8 km
>= 3000ft
5 à 8 km
1000 à 3000 ft
1500m à 5 km
500 à 1000 ft
800 à 1500m
200 à 500 ft
< 800m
< 200 ft
Symboles :   Orages  Brouillard  Fortes neiges  Fortes précipitations  Vent > 20 kt
SIGMETs :   Divers  Orages  Givrage  Turbulence  Onde Orograph.  Cendres Volcan.







- Altitude de l'aérodrome : 348 ft
- Code IATA : STN
- Voir les cartes d'approche


EGSS - London Stansted

DERNIER METAR :
  • 230220Z AUTO 23003KT 5000 BR BKN022 OVC027 07/06 Q1028

METARs EXPIRÉS :
  • 230150Z AUTO 22005KT 5000 BR BKN026 OVC031 07/06 Q1028
  • 230120Z AUTO 21004KT 6000 OVC028 07/06 Q1028
  • 230050Z AUTO 22006KT 5000 BR BKN029 05/04 Q1028
  • 230020Z AUTO 22006KT 6000 NCD 05/05 Q1028
  • 222350Z AUTO 24005KT 7000 NCD 05/04 Q1027

TAF AMD TAF EGSS
Valide du 23 à 00h jusqu'au 24 à 06h UTC


222357Z 2300/2406 VRB05KT 9999 BKN025
TEMPO 2300/2307 BKN014
PROB30
TEMPO 2300/2307 8000 -RADZ BKN008
BECMG 2306/2309 01012KT
BECMG 2316/2319 09010KT
BECMG 2321/2324 02003KT
ATIS : +44 1279 669 325
Pas de NOTAMs connus pour ce terrain.



MET'MAP, la Météo Aéronautique d'un coup d'oeil ! - Copyright ORBIFLY Décembre 2007 - Disclaimer

ORBIFLY MET'MAP TEAM :

Programmation & Développement : Alexandra Zaïnal
Conception & Développement : Baudouin d'Aumeries
Co-Programmation & Développement : Marc-Olivier Méhu
Soutien technique & logistique : Manuel Goepfert

Contact : metmap@orbifly.com




SOURCES & CREDITS :

   NOAA